Aviation Digital Data Service (ADDS)

Output produced by METARs form (1504 UTC 29 May 2017)
found at http://www.aviationweather.gov/adds/metars/
 
METAR text: KSET 291454Z AUTO 20005KT 10SM CLR 23/15 A2992 RMK AO2 SLP127 T02280150 50004 $
Conditions at: KSET (ST. CHARLES , MO, US) observed 1454 UTC 29 May 2017
Temperature: 22.8°C (73°F)
Dewpoint: 15.0°C (59°F) [RH = 61%]
Pressure (altimeter): 29.92 inches Hg (1013.3 mb)
[Sea-level pressure: 1012.7 mb]
Winds: from the SSW (200 degrees) at 6 MPH (5 knots; 2.6 m/s)
Visibility: 10 or more miles (16+ km)
Ceiling: at least 12,000 feet AGL
Clouds: sky clear below 12,000 feet AGL
Weather:
SOME DATA ABOVE MAY BE INACCURATE!!!
"$" is an indication the sensor requires maintenance